createdAt,value
2018-04-10T00:00:05.109Z,48.28
2018-04-10T00:01:05.107Z,48.18
2018-04-10T00:02:05.112Z,48.18
2018-04-10T00:03:05.107Z,47.89
2018-04-10T00:04:05.107Z,48.47
2018-04-10T00:05:05.106Z,48.47
2018-04-10T00:06:05.107Z,48.37
2018-04-10T00:07:05.121Z,47.89
2018-04-10T00:08:05.104Z,48.57
2018-04-10T00:09:05.105Z,48.47
2018-04-10T00:10:05.110Z,48.57
2018-04-10T00:11:05.105Z,48.85
2018-04-10T00:12:05.105Z,49.23
2018-04-10T00:13:05.104Z,48.75
2018-04-10T00:14:05.104Z,49.13
2018-04-10T00:15:05.104Z,48.85
2018-04-10T00:16:05.101Z,48.75
2018-04-10T00:17:05.101Z,48.66
2018-04-10T00:18:05.106Z,49.13
2018-04-10T00:19:05.101Z,49.23
2018-04-10T00:20:05.101Z,49.04
2018-04-10T00:21:05.100Z,49.52
2018-04-10T00:22:05.099Z,49.33
2018-04-10T00:23:05.100Z,49.62
2018-04-10T00:24:05.098Z,49.71
2018-04-10T00:25:05.098Z,50.54
2018-04-10T00:26:05.103Z,50.73
2018-04-10T00:27:05.101Z,50.73
2018-04-10T00:28:05.140Z,50.92
2018-04-10T00:29:05.097Z,51.02
2018-04-10T00:30:05.097Z,50.92
2018-04-10T00:31:05.096Z,50.73
2018-04-10T00:32:05.096Z,50.73
2018-04-10T00:33:05.096Z,51.12
2018-04-10T00:34:05.098Z,51.50
2018-04-10T00:35:05.097Z,51.50
2018-04-10T00:36:05.093Z,51.50
2018-04-10T00:37:05.093Z,51.50
2018-04-10T00:38:05.092Z,51.78
2018-04-10T00:39:05.092Z,51.68
2018-04-10T00:40:05.092Z,51.95
2018-04-10T00:41:05.092Z,52.23
2018-04-10T00:42:05.090Z,52.14
2018-04-10T00:43:05.090Z,52.52
2018-04-10T00:44:05.090Z,52.52
2018-04-10T00:45:05.087Z,52.42
2018-04-10T00:46:05.087Z,53.38
2018-04-10T00:47:05.088Z,53.00
2018-04-10T00:48:05.085Z,52.90
2018-04-10T00:49:05.084Z,52.90
2018-04-10T00:50:05.083Z,52.61
2018-04-10T00:51:05.083Z,52.33
2018-04-10T00:52:05.082Z,52.23
2018-04-10T00:53:05.081Z,51.85
2018-04-10T00:54:05.081Z,51.59
2018-04-10T00:55:05.079Z,51.50
2018-04-10T00:56:05.078Z,51.31
2018-04-10T00:57:05.078Z,51.31
2018-04-10T00:58:05.076Z,51.50
2018-04-10T00:59:05.076Z,51.02
2018-04-10T01:00:05.075Z,50.83
2018-04-10T01:01:05.075Z,51.02
2018-04-10T01:02:05.073Z,50.83
2018-04-10T01:03:05.073Z,50.63
2018-04-10T01:04:05.071Z,50.73
2018-04-10T01:05:05.073Z,50.35
2018-04-10T01:06:05.071Z,50.54
2018-04-10T01:07:05.070Z,50.83
2018-04-10T01:08:05.069Z,50.73
2018-04-10T01:09:05.068Z,50.92
2018-04-10T01:10:05.070Z,51.12
2018-04-10T01:11:05.067Z,51.02
2018-04-10T01:12:05.064Z,50.92
2018-04-10T01:13:05.064Z,50.92
2018-04-10T01:14:05.063Z,51.12
2018-04-10T01:15:05.064Z,51.02
2018-04-10T01:16:05.062Z,50.54
2018-04-10T01:17:05.061Z,51.02
2018-04-10T01:18:05.060Z,50.83
2018-04-10T01:19:05.061Z,50.35
2018-04-10T01:20:05.061Z,50.54
2018-04-10T01:21:05.061Z,50.73
2018-04-10T01:22:05.057Z,51.12
2018-04-10T01:23:05.056Z,51.40
2018-04-10T01:24:05.056Z,51.68
2018-04-10T01:25:05.054Z,51.56
2018-04-10T01:26:05.055Z,52.52
2018-04-10T01:27:05.052Z,52.52
2018-04-10T01:28:05.052Z,52.71
2018-04-10T01:29:05.050Z,52.80
2018-04-10T01:30:05.051Z,52.61
2018-04-10T01:31:05.049Z,52.61
2018-04-10T01:32:05.049Z,52.52
2018-04-10T01:33:05.054Z,51.95
2018-04-10T01:34:05.046Z,51.56
2018-04-10T01:35:05.045Z,51.85
2018-04-10T01:36:05.043Z,51.76
2018-04-10T01:37:05.043Z,52.52
2018-04-10T01:38:05.043Z,52.80
2018-04-10T01:39:05.041Z,52.64
2018-04-10T01:40:05.040Z,52.26
2018-04-10T01:41:05.040Z,51.97
2018-04-10T01:42:05.038Z,51.68
2018-04-10T01:43:05.041Z,51.50
2018-04-10T01:44:05.036Z,50.92
2018-04-10T01:45:05.035Z,51.12
2018-04-10T01:46:05.035Z,51.21
2018-04-10T01:47:05.034Z,51.02
2018-04-10T01:48:05.032Z,50.73
2018-04-10T01:49:05.032Z,50.63
2018-04-10T01:50:05.031Z,51.02
2018-04-10T01:51:05.031Z,51.02
2018-04-10T01:52:05.029Z,50.73
2018-04-10T01:53:05.028Z,50.83
2018-04-10T01:54:05.028Z,51.40
2018-04-10T01:55:05.027Z,51.02
2018-04-10T01:56:05.026Z,51.21
2018-04-10T01:57:05.026Z,51.40
2018-04-10T01:58:05.025Z,51.40
2018-04-10T01:59:05.031Z,51.59
2018-04-10T02:00:05.023Z,51.97
2018-04-10T02:01:05.023Z,52.07
2018-04-10T02:02:05.023Z,51.88
2018-04-10T02:03:05.022Z,52.55
2018-04-10T02:04:05.019Z,52.64
2018-04-10T02:05:05.019Z,52.61
2018-04-10T02:06:05.018Z,52.71
2018-04-10T02:07:05.020Z,53.56
2018-04-10T02:08:05.019Z,53.66
2018-04-10T02:09:05.016Z,53.95
2018-04-10T02:10:05.016Z,55.57
2018-04-10T02:11:05.014Z,56.43
2018-04-10T02:17:22.660Z,56.14
2018-04-10T02:18:22.658Z,55.47
2018-04-10T02:19:22.657Z,56.33
2018-04-10T02:20:22.656Z,56.14
2018-04-10T02:21:22.656Z,56.90
2018-04-10T02:22:22.655Z,57.19
2018-04-10T02:23:22.655Z,56.62
2018-04-10T02:24:22.652Z,56.43
2018-04-10T02:25:22.652Z,55.76
2018-04-10T02:26:22.652Z,56.04
2018-04-10T02:27:22.650Z,56.33
2018-04-10T02:28:22.648Z,55.00
2018-04-10T02:29:22.647Z,54.90
2018-04-10T02:30:22.649Z,54.45
2018-04-10T02:31:22.645Z,54.64
2018-04-10T02:32:22.645Z,54.45
2018-04-10T02:33:22.643Z,54.71
2018-04-10T02:34:22.642Z,55.28
2018-04-10T02:35:22.644Z,55.47
2018-04-10T02:36:22.640Z,56.62
2018-04-10T02:37:22.638Z,57.28
2018-04-10T02:38:22.636Z,57.95
2018-04-10T02:39:22.637Z,58.52
2018-04-10T02:40:22.635Z,58.72
2018-04-10T02:41:22.635Z,59.38
2018-04-10T02:42:22.633Z,58.69
2018-04-10T02:43:22.633Z,58.11
2018-04-10T02:44:22.632Z,57.48
2018-04-10T02:45:22.632Z,56.71
2018-04-10T02:46:22.629Z,56.14
2018-04-10T02:47:22.638Z,56.04
2018-04-10T02:48:22.629Z,55.85
2018-04-10T02:49:22.625Z,55.28
2018-04-10T02:50:22.631Z,55.09
2018-04-10T02:51:22.624Z,54.61
2018-04-10T02:52:22.621Z,53.56
2018-04-10T02:53:22.619Z,53.69
2018-04-10T02:54:22.619Z,53.69
2018-04-10T02:55:22.619Z,53.50
2018-04-10T02:56:22.617Z,52.45
2018-04-10T02:57:22.616Z,51.68
2018-04-10T02:58:22.615Z,51.78
2018-04-10T02:59:22.615Z,51.50
2018-04-10T03:00:22.613Z,51.21
2018-04-10T03:01:22.612Z,51.12
2018-04-10T03:02:22.612Z,51.21
2018-04-10T03:03:22.611Z,51.31
2018-04-10T03:04:22.609Z,51.40
2018-04-10T03:05:22.612Z,51.40
2018-04-10T03:06:22.611Z,51.78
2018-04-10T03:07:22.608Z,51.21
2018-04-10T03:08:22.606Z,51.68
2018-04-10T03:09:22.606Z,51.40
2018-04-10T03:10:22.606Z,51.21
2018-04-10T03:11:22.604Z,51.21
2018-04-10T03:12:22.603Z,51.31
2018-04-10T03:13:22.602Z,51.31
2018-04-10T03:14:22.602Z,51.97
2018-04-10T03:15:22.605Z,51.97
2018-04-10T03:16:22.599Z,51.40
2018-04-10T03:17:22.599Z,51.68
2018-04-10T03:18:22.599Z,51.59
2018-04-10T03:19:22.598Z,52.73
2018-04-10T03:20:22.597Z,52.26
2018-04-10T03:21:22.597Z,52.16
2018-04-10T03:22:22.596Z,52.55
2018-04-10T03:23:22.596Z,52.26
2018-04-10T03:24:22.595Z,51.68
2018-04-10T03:25:22.595Z,51.97
2018-04-10T03:26:22.595Z,51.68
2018-04-10T03:27:22.593Z,51.59
2018-04-10T03:28:22.593Z,51.50
2018-04-10T03:29:22.593Z,51.68
2018-04-10T03:30:22.592Z,51.50
2018-04-10T03:31:22.590Z,52.16
2018-04-10T03:32:22.590Z,51.78
2018-04-10T03:33:22.590Z,51.78
2018-04-10T03:34:22.588Z,51.31
2018-04-10T03:35:22.589Z,51.78
2018-04-10T03:36:22.587Z,51.68
2018-04-10T03:37:22.587Z,51.78
2018-04-10T03:38:22.587Z,51.68
2018-04-10T03:39:22.586Z,51.68
2018-04-10T03:40:22.585Z,51.68
2018-04-10T03:41:22.584Z,51.68
2018-04-10T03:42:22.584Z,51.40
2018-04-10T03:43:22.582Z,51.68
2018-04-10T03:44:22.582Z,51.31
2018-04-10T03:45:22.580Z,51.12
2018-04-10T03:46:22.581Z,51.50
2018-04-10T03:47:22.580Z,51.21
2018-04-10T03:48:22.582Z,51.59
2018-04-10T03:49:22.579Z,51.40
2018-04-10T03:50:22.579Z,51.68
2018-04-10T03:51:22.581Z,51.97
2018-04-10T03:52:22.577Z,52.26
2018-04-10T03:53:22.577Z,52.45
2018-04-10T03:54:22.577Z,52.55
2018-04-10T03:55:22.576Z,52.92
2018-04-10T03:56:22.577Z,52.64
2018-04-10T03:57:22.576Z,52.73
2018-04-10T03:58:22.575Z,53.02
2018-04-10T03:59:22.574Z,53.41
2018-04-10T04:00:22.574Z,53.69
2018-04-10T04:01:22.572Z,54.07
2018-04-10T04:02:22.570Z,53.50
2018-04-10T04:03:22.571Z,53.97
2018-04-10T04:04:22.570Z,53.59
2018-04-10T04:05:22.568Z,53.59
2018-04-10T04:06:22.570Z,53.59
2018-04-10T04:07:22.568Z,53.78
2018-04-10T04:08:22.566Z,53.12
2018-04-10T04:09:22.566Z,52.73
2018-04-10T04:10:22.569Z,52.55
2018-04-10T04:11:22.565Z,52.83
2018-04-10T04:12:22.564Z,52.45
2018-04-10T04:13:22.565Z,52.73
2018-04-10T04:14:22.562Z,52.55
2018-04-10T04:15:22.563Z,52.55
2018-04-10T04:16:22.562Z,52.64
2018-04-10T04:17:22.561Z,52.26
2018-04-10T04:18:22.560Z,52.16
2018-04-10T04:19:22.560Z,52.16
2018-04-10T04:20:22.557Z,51.88
2018-04-10T04:21:22.558Z,52.16
2018-04-10T04:22:22.558Z,51.68
2018-04-10T04:23:22.556Z,51.40
2018-04-10T04:24:22.557Z,51.68
2018-04-10T04:25:22.557Z,51.97
2018-04-10T04:26:22.555Z,52.45
2018-04-10T04:27:22.554Z,52.45
2018-04-10T04:28:22.553Z,53.50
2018-04-10T04:29:22.552Z,52.73
2018-04-10T04:30:22.552Z,52.55
2018-04-10T04:31:22.553Z,52.55
2018-04-10T04:32:22.550Z,52.83
2018-04-10T04:33:22.550Z,53.78
2018-04-10T04:34:22.550Z,52.83
2018-04-10T04:35:22.548Z,53.31
2018-04-10T04:36:22.547Z,53.69
2018-04-10T04:37:22.547Z,53.69
2018-04-10T04:38:22.547Z,53.69
2018-04-10T04:39:22.547Z,53.69
2018-04-10T04:40:22.545Z,53.02
2018-04-10T04:41:22.545Z,53.50
2018-04-10T04:42:22.544Z,53.69
2018-04-10T04:43:22.543Z,53.31
2018-04-10T04:44:22.542Z,53.02
2018-04-10T04:45:22.542Z,53.41
2018-04-10T04:46:22.542Z,53.31
2018-04-10T04:47:22.541Z,53.97
2018-04-10T04:48:22.539Z,53.31
2018-04-10T04:49:22.539Z,53.31
2018-04-10T04:50:22.539Z,53.50
2018-04-10T04:51:22.541Z,53.59
2018-04-10T04:52:22.537Z,54.07
2018-04-10T04:53:22.537Z,54.45
2018-04-10T04:54:22.535Z,54.36
2018-04-10T04:55:22.535Z,54.33
2018-04-10T04:56:22.534Z,54.80
2018-04-10T04:57:22.533Z,55.57
2018-04-10T04:58:22.533Z,55.19
2018-04-10T04:59:22.800Z,54.71
2018-04-10T05:00:22.531Z,54.61
2018-04-10T05:01:22.530Z,54.55
2018-04-10T05:02:22.531Z,54.64
2018-04-10T05:03:22.528Z,54.74
2018-04-10T05:04:22.528Z,54.83
2018-04-10T05:05:22.528Z,54.36
2018-04-10T05:06:22.526Z,54.93
2018-04-10T05:07:22.526Z,54.74
2018-04-10T05:08:22.570Z,55.02
2018-04-10T05:09:22.525Z,55.02
2018-04-10T05:10:22.525Z,55.66
2018-04-10T05:11:22.523Z,55.47
2018-04-10T05:12:22.522Z,55.85
2018-04-10T05:13:22.520Z,56.33
2018-04-10T05:14:22.522Z,56.33
2018-04-10T05:15:22.530Z,56.43
2018-04-10T05:16:22.519Z,55.85
2018-04-10T05:17:22.518Z,55.85
2018-04-10T05:18:22.518Z,55.66
2018-04-10T05:19:22.517Z,55.85
2018-04-10T05:20:22.515Z,55.41
2018-04-10T05:21:22.514Z,55.88
2018-04-10T05:22:22.515Z,55.31
2018-04-10T05:23:22.513Z,56.07
2018-04-10T05:24:22.512Z,55.60
2018-04-10T05:25:22.511Z,55.50
2018-04-10T05:26:22.511Z,55.02
2018-04-10T05:27:22.511Z,55.12
2018-04-10T05:28:22.509Z,55.02
2018-04-10T05:29:22.509Z,55.02
2018-04-10T05:30:22.509Z,54.83
2018-04-10T05:31:22.510Z,54.83
2018-04-10T05:32:22.507Z,55.79
2018-04-10T05:33:22.507Z,55.02
2018-04-10T05:34:22.506Z,55.02
2018-04-10T05:35:22.505Z,54.93
2018-04-10T05:36:22.505Z,55.50
2018-04-10T05:37:22.504Z,55.88
2018-04-10T05:38:22.504Z,56.17
2018-04-10T05:39:22.503Z,56.26
2018-04-10T05:40:22.502Z,55.60
2018-04-10T05:41:22.506Z,55.41
2018-04-10T05:42:22.503Z,55.21
2018-04-10T05:43:22.500Z,55.02
2018-04-10T05:44:22.503Z,54.83
2018-04-10T05:45:22.501Z,54.74
2018-04-10T05:46:22.530Z,54.36
2018-04-10T05:47:22.500Z,54.64
2018-04-10T05:48:22.499Z,55.02
2018-04-10T05:49:22.497Z,55.02
2018-04-10T05:50:22.498Z,55.02
2018-04-10T05:51:22.498Z,55.02
2018-04-10T05:52:22.496Z,55.41
2018-04-10T05:53:22.496Z,56.26
2018-04-10T05:54:22.496Z,55.41
2018-04-10T05:55:22.496Z,56.17
2018-04-10T05:56:22.495Z,55.88
2018-04-10T05:57:22.495Z,55.50
2018-04-10T05:58:22.494Z,55.79
2018-04-10T05:59:22.494Z,56.07
2018-04-10T06:00:22.495Z,55.98
2018-04-10T06:01:22.493Z,55.98
2018-04-10T06:02:22.619Z,56.07
2018-04-10T06:03:22.576Z,56.55
2018-04-10T06:04:22.537Z,56.74
2018-04-10T06:05:22.517Z,56.84
2018-04-10T06:06:22.536Z,56.55
2018-04-10T06:07:22.567Z,56.07
2018-04-10T06:08:22.491Z,56.17
2018-04-10T06:09:22.491Z,56.55
2018-04-10T06:10:22.490Z,56.26
2018-04-10T06:11:22.491Z,56.65
2018-04-10T06:12:22.489Z,56.36
2018-04-10T06:13:22.758Z,56.46
2018-04-10T06:14:22.490Z,56.46
2018-04-10T06:15:22.492Z,57.41
2018-04-10T06:16:22.493Z,58.07
2018-04-10T06:17:22.489Z,56.46
2018-04-10T06:18:22.490Z,56.36
2018-04-10T06:19:22.488Z,55.98
2018-04-10T06:20:22.489Z,55.41
2018-04-10T06:21:22.490Z,55.02
2018-04-10T06:22:22.489Z,54.45
2018-04-10T06:23:22.492Z,54.64
2018-04-10T06:24:22.487Z,54.96
2018-04-10T06:25:22.487Z,54.38
2018-04-10T06:26:22.488Z,54.57
2018-04-10T06:27:22.488Z,54.57
2018-04-10T06:28:22.560Z,53.62
2018-04-10T06:29:22.567Z,53.72
2018-04-10T06:30:22.546Z,54.48
2018-04-10T06:31:22.488Z,55.15
2018-04-10T06:32:22.570Z,54.77
2018-04-10T06:33:22.493Z,55.72
2018-04-10T06:34:24.587Z,54.38
2018-04-10T06:35:22.489Z,54.03
2018-04-10T06:36:22.488Z,53.74
2018-04-10T06:37:22.518Z,53.74
2018-04-10T06:38:22.490Z,53.45
2018-04-10T06:39:22.491Z,54.60
2018-04-10T06:40:22.489Z,54.60
2018-04-10T06:41:22.490Z,54.41
2018-04-10T06:42:22.489Z,54.50
2018-04-10T06:43:22.493Z,54.50
2018-04-10T06:44:22.491Z,55.18
2018-04-10T06:45:22.491Z,54.99
2018-04-10T06:46:22.492Z,54.03
2018-04-10T06:47:22.493Z,53.74
2018-04-10T06:48:22.493Z,54.22
2018-04-10T06:49:22.493Z,54.41
2018-04-10T06:50:22.494Z,54.32
2018-04-10T06:51:22.495Z,53.67
2018-04-10T06:52:22.495Z,54.63
2018-04-10T06:53:22.496Z,54.15
2018-04-10T06:54:22.498Z,53.29
2018-04-10T06:55:22.499Z,53.22
2018-04-10T06:56:22.498Z,53.80
2018-04-10T06:57:22.503Z,53.80
2018-04-10T06:58:22.503Z,52.29
2018-04-10T06:59:22.503Z,51.43
2018-04-10T07:00:22.506Z,51.93
2018-04-10T07:01:22.511Z,50.41
2018-04-10T07:02:22.510Z,49.64
2018-04-10T07:03:22.513Z,49.74
2018-04-10T07:04:22.514Z,49.74
2018-04-10T07:05:22.517Z,49.84
2018-04-10T07:06:22.520Z,49.00
2018-04-10T07:07:22.523Z,49.48
2018-04-10T07:08:22.525Z,47.56
2018-04-10T07:09:22.530Z,46.53
2018-04-10T07:10:22.671Z,45.38
2018-04-10T07:11:22.541Z,45.02
2018-04-10T07:12:22.538Z,44.35
2018-04-10T07:13:22.571Z,44.37
2018-04-10T07:14:22.547Z,43.99
2018-04-10T07:15:22.552Z,42.57
2018-04-10T07:16:22.557Z,41.25
2018-04-10T07:17:22.560Z,40.89
2018-04-10T07:18:22.563Z,40.50
2018-04-10T07:19:22.569Z,40.05
2018-04-10T07:20:22.573Z,39.76
2018-04-10T07:21:22.578Z,39.76
2018-04-10T07:22:22.584Z,39.95
2018-04-10T07:23:22.590Z,38.32
2018-04-10T07:24:22.593Z,37.93
2018-04-10T07:25:22.599Z,39.08
2018-04-10T07:26:22.606Z,38.87
2018-04-10T07:27:22.762Z,39.56
2018-04-10T07:28:22.735Z,38.89
2018-04-10T07:29:22.625Z,38.12
2018-04-10T07:30:22.630Z,38.53
2018-04-10T07:31:22.796Z,37.77
2018-04-10T07:32:22.642Z,37.20
2018-04-10T07:33:22.650Z,38.26
2018-04-10T07:34:22.657Z,37.39
2018-04-10T07:35:22.663Z,38.24
2018-04-10T07:36:22.861Z,38.32
2018-04-10T07:37:22.919Z,39.56
2018-04-10T07:38:22.948Z,41.17
2018-04-10T07:39:22.689Z,42.13
2018-04-10T07:40:22.695Z,42.04
2018-04-10T07:41:22.809Z,42.40
2018-04-10T07:42:22.761Z,41.83
2018-04-10T07:43:22.711Z,42.02
2018-04-10T07:44:22.718Z,43.36
2018-04-10T07:45:22.725Z,43.63
2018-04-10T07:46:22.730Z,43.63
2018-04-10T07:47:22.736Z,43.91
2018-04-10T07:48:22.739Z,44.49
2018-04-10T07:49:23.067Z,43.80
2018-04-10T07:50:23.009Z,43.32
2018-04-10T07:51:22.780Z,43.23
2018-04-10T07:52:22.760Z,43.90
2018-04-10T07:53:22.765Z,43.90
2018-04-10T07:54:22.934Z,43.80
2018-04-10T07:55:22.775Z,43.99
2018-04-10T07:56:22.780Z,45.04
2018-04-10T07:57:22.785Z,45.43
2018-04-10T07:58:22.789Z,46.10
2018-04-10T07:59:22.795Z,45.21
2018-04-10T08:00:22.799Z,44.26
2018-04-10T08:01:23.073Z,45.89
2018-04-10T08:02:22.809Z,45.89
2018-04-10T08:03:22.840Z,44.73
2018-04-10T08:04:22.817Z,44.64
2018-04-10T08:05:22.835Z,45.43
2018-04-10T08:06:22.829Z,43.70
2018-04-10T08:07:22.834Z,43.60
2018-04-10T08:08:22.838Z,43.73
2018-04-10T08:09:23.110Z,42.67
2018-04-10T08:10:22.849Z,41.73
2018-04-10T08:11:22.855Z,41.63
2018-04-10T08:12:23.155Z,41.54
2018-04-10T08:13:22.865Z,40.67
2018-04-10T08:14:22.872Z,40.87
2018-04-10T08:15:22.879Z,42.21
2018-04-10T08:16:22.883Z,41.83
2018-04-10T08:17:22.889Z,40.77
2018-04-10T08:18:22.896Z,41.27
2018-04-10T08:19:22.903Z,42.33
2018-04-10T08:20:22.908Z,41.66
2018-04-10T08:21:22.915Z,40.60
2018-04-10T08:22:23.454Z,42.61
2018-04-10T08:23:22.927Z,41.46
2018-04-10T08:24:22.933Z,41.94
2018-04-10T08:25:22.941Z,42.23
2018-04-10T08:26:22.947Z,42.43
2018-04-10T08:27:22.953Z,42.13
2018-04-10T08:28:22.982Z,43.88
2018-04-10T08:29:22.966Z,44.17
2018-04-10T08:30:22.974Z,43.70
2018-04-10T08:31:22.980Z,41.79
2018-04-10T08:32:22.984Z,42.00
2018-04-10T08:33:23.178Z,43.07
2018-04-10T08:34:23.190Z,41.53
2018-04-10T08:35:23.007Z,40.28
2018-04-10T08:36:23.236Z,40.95
2018-04-10T08:37:23.021Z,41.79
2018-04-10T08:38:23.027Z,41.70
2018-04-10T08:39:23.118Z,41.70
2018-04-10T08:40:23.042Z,41.31
2018-04-10T08:41:23.050Z,41.79
2018-04-10T08:42:23.055Z,41.41
2018-04-10T08:43:23.065Z,40.73
2018-04-10T08:44:23.071Z,42.27
2018-04-10T08:45:23.079Z,43.23
2018-04-10T08:46:23.086Z,42.20
2018-04-10T08:47:23.113Z,42.10
2018-04-10T08:48:23.099Z,41.72
2018-04-10T08:49:23.109Z,42.32
2018-04-10T08:50:23.311Z,42.30
2018-04-10T08:51:23.125Z,41.74
2018-04-10T08:52:23.128Z,42.70
2018-04-10T08:53:23.136Z,41.64
2018-04-10T08:54:23.404Z,43.28
2018-04-10T08:55:23.446Z,40.70
2018-04-10T08:56:23.424Z,41.66
2018-04-10T08:57:23.815Z,41.66
2018-04-10T08:58:23.176Z,40.70
2018-04-10T08:59:23.180Z,39.18
2018-04-10T09:00:23.189Z,40.63
2018-04-10T09:01:23.196Z,40.05
2018-04-10T09:02:23.208Z,39.66
2018-04-10T09:03:23.461Z,40.43
2018-04-10T09:04:23.224Z,40.94
2018-04-10T09:05:23.228Z,39.49
2018-04-10T09:06:23.236Z,39.39
2018-04-10T09:07:23.243Z,39.01
2018-04-10T09:08:23.251Z,38.64
2018-04-10T09:09:23.278Z,36.89
2018-04-10T09:10:23.270Z,36.04
2018-04-10T09:11:23.278Z,37.77
2018-04-10T09:12:23.287Z,38.08
2018-04-10T09:13:23.296Z,37.79
2018-04-10T09:14:23.305Z,36.75
2018-04-10T09:15:23.318Z,36.07
2018-04-10T09:16:23.324Z,36.19
2018-04-10T09:17:23.334Z,36.30
2018-04-10T09:18:23.343Z,34.36
2018-04-10T09:19:23.354Z,34.16
2018-04-10T09:20:23.364Z,34.74
2018-04-10T09:21:23.375Z,35.52
2018-04-10T09:22:23.441Z,34.08
2018-04-10T09:23:23.397Z,33.50
2018-04-10T09:24:23.407Z,34.39
2018-04-10T09:25:23.418Z,32.86
2018-04-10T09:26:23.464Z,32.68
2018-04-10T09:27:23.442Z,32.59
2018-04-10T09:28:23.452Z,33.07
2018-04-10T09:29:23.463Z,31.34
2018-04-10T09:30:23.476Z,31.81
2018-04-10T09:31:23.488Z,30.25
2018-04-10T09:32:23.499Z,31.60
2018-04-10T09:33:23.579Z,31.31
2018-04-10T09:34:23.530Z,30.36
2018-04-10T09:35:23.538Z,31.52
2018-04-10T09:36:23.549Z,31.34
2018-04-10T09:37:23.562Z,29.02
2018-04-10T09:38:23.624Z,28.92
2018-04-10T09:39:23.588Z,29.32
2018-04-10T09:40:23.598Z,29.13
2018-04-10T09:41:23.614Z,31.15
2018-04-10T09:42:23.627Z,32.60
2018-04-10T09:43:23.641Z,30.49
2018-04-10T09:44:23.812Z,27.40
2018-04-10T09:45:23.668Z,29.05
2018-04-10T09:46:23.681Z,28.66
2018-04-10T09:47:23.772Z,28.19
2018-04-10T09:48:23.709Z,28.39
2018-04-10T09:49:23.725Z,28.29
2018-04-10T09:50:23.737Z,26.45
2018-04-10T09:51:23.750Z,27.03
2018-04-10T09:52:23.766Z,26.16
2018-04-10T09:53:23.780Z,26.73
2018-04-10T09:54:23.795Z,27.70
2018-04-10T09:55:23.810Z,25.76
2018-04-10T09:56:23.823Z,24.71
2018-04-10T09:57:23.838Z,24.90
2018-04-10T09:58:23.854Z,25.38
2018-04-10T09:59:24.064Z,26.92
2018-04-10T10:00:23.889Z,25.27
2018-04-10T10:01:23.896Z,26.34
2018-04-10T10:02:23.911Z,25.76
2018-04-10T10:03:23.925Z,26.12
2018-04-10T10:04:23.942Z,26.41
2018-04-10T10:05:23.954Z,27.57
2018-04-10T10:06:23.970Z,28.15
2018-04-10T10:07:24.063Z,26.70
2018-04-10T10:08:23.997Z,27.37
2018-04-10T10:09:24.010Z,29.52
2018-04-10T10:10:24.042Z,27.10
2018-04-10T10:11:24.039Z,27.89
2018-04-10T10:12:24.055Z,27.32
2018-04-10T10:13:24.069Z,25.67
2018-04-10T10:14:24.081Z,26.16
2018-04-10T10:15:24.095Z,28.58
2018-04-10T10:16:24.109Z,26.93
2018-04-10T10:17:24.191Z,26.84
2018-04-10T10:18:24.136Z,26.65
2018-04-10T10:19:24.150Z,27.33
2018-04-10T10:20:24.164Z,28.59
2018-04-10T10:21:24.183Z,25.40
2018-04-10T10:22:24.192Z,23.76
2018-04-10T10:23:24.207Z,22.10
2018-04-10T10:24:24.220Z,23.26
2018-04-10T10:25:24.234Z,23.55
2018-04-10T10:26:24.252Z,23.65
2018-04-10T10:27:24.261Z,23.94
2018-04-10T10:28:24.279Z,24.03
2018-04-10T10:29:24.290Z,23.83
2018-04-10T10:30:24.305Z,24.11
2018-04-10T10:31:24.593Z,25.19
2018-04-10T10:32:24.373Z,24.60
2018-04-10T10:33:24.348Z,24.69
2018-04-10T10:34:24.362Z,24.11
2018-04-10T10:35:24.376Z,24.71
2018-04-10T10:36:24.389Z,23.06
2018-04-10T10:37:24.401Z,24.90
2018-04-10T10:38:24.426Z,22.28
2018-04-10T10:39:24.433Z,22.47
2018-04-10T10:40:24.467Z,21.88
2018-04-10T10:41:24.461Z,21.01
2018-04-10T10:42:24.550Z,21.70
2018-04-10T10:43:24.749Z,20.15
2018-04-10T10:44:24.501Z,21.71
2018-04-10T10:45:24.518Z,20.56
2018-04-10T10:46:24.530Z,21.83
2018-04-10T10:47:24.659Z,21.44
2018-04-10T10:48:24.557Z,23.28
2018-04-10T10:49:24.584Z,23.09
2018-04-10T10:50:24.587Z,21.25
2018-04-10T10:51:24.602Z,22.03
2018-04-10T10:52:24.615Z,23.20
2018-04-10T10:53:24.687Z,21.75
2018-04-10T10:54:24.646Z,21.36
2018-04-10T10:55:24.661Z,21.27
2018-04-10T10:56:24.962Z,21.66
2018-04-10T10:57:24.942Z,23.70
2018-04-10T10:58:24.858Z,23.50
2018-04-10T10:59:24.820Z,20.78
2018-04-10T11:00:24.736Z,23.70
2018-04-10T11:01:24.752Z,22.33
2018-04-10T11:02:24.766Z,24.57
2018-04-10T11:03:24.782Z,24.56
2018-04-10T11:04:24.795Z,20.87
2018-04-10T11:05:25.066Z,19.11
2018-04-10T11:06:25.097Z,23.37
2018-04-10T11:07:24.895Z,22.69
2018-04-10T11:08:24.855Z,22.80
2018-04-10T11:09:24.870Z,26.00
2018-04-10T11:10:25.105Z,24.93
2018-04-10T11:11:24.899Z,21.25
2018-04-10T11:12:24.913Z,20.65
2018-04-10T11:13:24.951Z,21.33
2018-04-10T11:14:24.943Z,21.23
2018-04-10T11:15:25.104Z,21.23
2018-04-10T11:16:24.972Z,25.59
2018-04-10T11:17:24.986Z,25.78
2018-04-10T11:20:25.030Z,23.65
2018-04-10T11:21:25.046Z,23.07
2018-04-10T11:22:25.061Z,25.20
2018-04-10T11:23:25.256Z,22.58
2018-04-10T11:24:25.106Z,22.28
2018-04-10T11:25:25.104Z,22.19
2018-04-10T11:26:25.116Z,22.09
2018-04-10T11:27:25.130Z,23.83
2018-04-10T11:28:25.142Z,23.16
2018-04-10T11:29:25.167Z,24.04
2018-04-10T11:30:25.170Z,22.19
2018-04-10T11:31:25.185Z,19.85
2018-04-10T11:32:25.199Z,19.55
2018-04-10T11:33:25.211Z,19.35
2018-04-10T11:34:25.228Z,19.63
2018-04-10T11:35:25.239Z,20.49
2018-04-10T11:36:25.249Z,22.33
2018-04-10T11:37:25.263Z,21.56
2018-04-10T11:38:25.277Z,20.98
2018-04-10T11:39:25.291Z,20.39
2018-04-10T11:40:25.302Z,21.17
2018-04-10T11:41:25.318Z,22.12
2018-04-10T11:42:25.327Z,22.80
2018-04-10T11:43:25.339Z,23.10
2018-04-10T11:44:25.357Z,22.80
2018-04-10T11:45:25.362Z,22.89
2018-04-10T11:46:25.375Z,23.49
2018-04-10T11:47:25.389Z,23.01
2018-04-10T11:48:25.407Z,23.32
2018-04-10T11:49:25.409Z,24.57
2018-04-10T11:50:25.421Z,24.87
2018-04-10T11:51:25.432Z,24.78
2018-04-10T11:52:25.444Z,25.26
2018-04-10T11:53:25.456Z,24.39
2018-04-10T11:54:25.471Z,26.43
2018-04-10T11:55:25.620Z,24.21
2018-04-10T11:56:25.646Z,24.40
2018-04-10T11:57:25.808Z,27.40
2018-04-10T11:58:25.515Z,23.53
2018-04-10T11:59:25.586Z,24.71
2018-04-10T12:00:25.543Z,25.78
2018-04-10T12:01:25.774Z,24.72
2018-04-10T12:02:25.684Z,24.62
2018-04-10T12:03:25.693Z,21.70
2018-04-10T12:04:25.587Z,23.06
2018-04-10T12:05:25.763Z,26.93
2018-04-10T12:06:25.856Z,26.26
2018-04-10T12:07:25.626Z,22.78
2018-04-10T12:08:25.636Z,27.72
2018-04-10T12:09:25.650Z,25.98
2018-04-10T12:10:25.664Z,24.62
2018-04-10T12:11:25.675Z,22.11
2018-04-10T12:12:25.686Z,25.99
2018-04-10T12:13:25.699Z,27.45
2018-04-10T12:14:25.712Z,26.39
2018-04-10T12:15:25.730Z,22.11
2018-04-10T12:16:25.737Z,21.71
2018-04-10T12:17:25.750Z,22.00
2018-04-10T12:18:25.772Z,22.27
2018-04-10T12:19:25.777Z,22.66
2018-04-10T12:20:25.793Z,24.51
2018-04-10T12:21:25.803Z,23.82
2018-04-10T12:22:25.813Z,23.24
2018-04-10T12:23:25.827Z,24.19
2018-04-10T12:24:25.838Z,23.61
2018-04-10T12:25:25.853Z,24.58
2018-04-10T12:26:25.863Z,24.78
2018-04-10T12:27:25.877Z,24.78
2018-04-10T12:28:25.888Z,24.97
2018-04-10T12:29:25.902Z,24.49
2018-04-10T12:30:25.911Z,25.94
2018-04-10T12:31:25.923Z,25.85
2018-04-10T12:32:25.934Z,24.21
2018-04-10T12:33:25.946Z,23.53
2018-04-10T12:34:25.958Z,24.50
2018-04-10T12:35:25.969Z,24.39
2018-04-10T12:36:25.980Z,24.87
2018-04-10T12:37:25.993Z,23.52
2018-04-10T12:38:26.005Z,22.16
2018-04-10T12:39:26.018Z,24.17
2018-04-10T12:40:26.027Z,23.40
2018-04-10T12:41:26.037Z,23.97
2018-04-10T12:42:26.050Z,25.34
2018-04-10T12:43:26.060Z,25.25
2018-04-10T12:44:26.071Z,26.70
2018-04-10T12:45:26.083Z,27.50
2018-04-10T12:46:26.094Z,27.79
2018-04-10T12:47:26.105Z,24.80
2018-04-10T12:48:26.115Z,24.71
2018-04-10T12:49:26.127Z,23.35
2018-04-10T12:50:26.138Z,23.63
2018-04-10T12:51:26.150Z,23.03
2018-04-10T12:52:26.158Z,24.68
2018-04-10T12:53:26.170Z,26.72
2018-04-10T12:54:26.180Z,26.81
2018-04-10T12:55:26.193Z,22.64
2018-04-10T12:56:26.201Z,23.59
2018-04-10T12:57:26.213Z,23.98
2018-04-10T12:58:26.223Z,24.66
2018-04-10T12:59:26.235Z,24.37